sensor_id;sensor_type;location;lat;lon;timestamp;P1;durP1;ratioP1;P2;durP2;ratioP2
3331;SDS011;1678;50.94845400;5.30809100;2022-07-23T00:00:56;10.10;;;9.10;;
3331;SDS011;1678;50.94845400;5.30809100;2022-07-23T00:03:25;9.90;;;9.10;;
3331;SDS011;1678;50.94845400;5.30809100;2022-07-23T00:05:53;13.60;;;9.57;;
3331;SDS011;1678;50.94845400;5.30809100;2022-07-23T00:08:21;23.50;;;10.67;;
3331;SDS011;1678;50.94845400;5.30809100;2022-07-23T00:10:49;9.87;;;9.03;;
3331;SDS011;1678;50.94845400;5.30809100;2022-07-23T00:13:18;13.33;;;10.77;;
3331;SDS011;1678;50.94845400;5.30809100;2022-07-23T00:15:46;10.40;;;9.23;;
3331;SDS011;1678;50.94845400;5.30809100;2022-07-23T00:18:14;11.63;;;9.53;;
3331;SDS011;1678;50.94845400;5.30809100;2022-07-23T00:20:43;15.57;;;7.90;;
3331;SDS011;1678;50.94845400;5.30809100;2022-07-23T00:23:11;10.17;;;9.30;;
3331;SDS011;1678;50.94845400;5.30809100;2022-07-23T00:25:39;12.83;;;10.30;;
3331;SDS011;1678;50.94845400;5.30809100;2022-07-23T00:28:07;13.00;;;9.30;;
3331;SDS011;1678;50.94845400;5.30809100;2022-07-23T00:30:38;9.07;;;8.10;;
3331;SDS011;1678;50.94845400;5.30809100;2022-07-23T00:33:07;17.13;;;10.70;;
3331;SDS011;1678;50.94845400;5.30809100;2022-07-23T00:35:36;12.13;;;9.63;;
3331;SDS011;1678;50.94845400;5.30809100;2022-07-23T00:38:08;13.83;;;9.23;;
3331;SDS011;1678;50.94845400;5.30809100;2022-07-23T00:40:37;12.23;;;8.40;;
3331;SDS011;1678;50.94845400;5.30809100;2022-07-23T00:43:06;11.00;;;9.90;;
3331;SDS011;1678;50.94845400;5.30809100;2022-07-23T00:45:35;14.67;;;9.27;;
3331;SDS011;1678;50.94845400;5.30809100;2022-07-23T00:48:03;12.87;;;8.90;;
3331;SDS011;1678;50.94845400;5.30809100;2022-07-23T00:50:32;10.77;;;9.67;;
3331;SDS011;1678;50.94845400;5.30809100;2022-07-23T00:53:00;10.47;;;9.40;;
3331;SDS011;1678;50.94845400;5.30809100;2022-07-23T00:55:29;15.33;;;10.00;;
3331;SDS011;1678;50.94845400;5.30809100;2022-07-23T00:57:57;16.03;;;10.07;;
3331;SDS011;1678;50.94845400;5.30809100;2022-07-23T01:00:26;12.23;;;10.03;;
3331;SDS011;1678;50.94845400;5.30809100;2022-07-23T01:02:54;9.53;;;8.60;;
3331;SDS011;1678;50.94845400;5.30809100;2022-07-23T01:05:22;9.90;;;8.93;;
3331;SDS011;1678;50.94845400;5.30809100;2022-07-23T01:07:51;18.77;;;10.83;;
3331;SDS011;1678;50.94845400;5.30809100;2022-07-23T01:10:21;9.80;;;8.87;;
3331;SDS011;1678;50.94845400;5.30809100;2022-07-23T01:13:01;18.40;;;9.30;;
3331;SDS011;1678;50.94845400;5.30809100;2022-07-23T01:15:31;12.33;;;10.23;;
3331;SDS011;1678;50.94845400;5.30809100;2022-07-23T01:18:00;13.27;;;10.73;;
3331;SDS011;1678;50.94845400;5.30809100;2022-07-23T01:20:28;14.57;;;10.43;;
3331;SDS011;1678;50.94845400;5.30809100;2022-07-23T01:22:58;11.20;;;9.73;;
3331;SDS011;1678;50.94845400;5.30809100;2022-07-23T01:25:26;15.33;;;10.57;;
3331;SDS011;1678;50.94845400;5.30809100;2022-07-23T01:27:54;12.07;;;9.50;;
3331;SDS011;1678;50.94845400;5.30809100;2022-07-23T01:30:22;11.30;;;10.07;;
3331;SDS011;1678;50.94845400;5.30809100;2022-07-23T01:32:50;16.60;;;11.07;;
3331;SDS011;1678;50.94845400;5.30809100;2022-07-23T01:35:18;12.63;;;10.87;;
3331;SDS011;1678;50.94845400;5.30809100;2022-07-23T01:37:46;16.03;;;11.53;;
3331;SDS011;1678;50.94845400;5.30809100;2022-07-23T01:40:16;15.30;;;9.67;;
3331;SDS011;1678;50.94845400;5.30809100;2022-07-23T01:42:46;24.83;;;11.10;;
3331;SDS011;1678;50.94845400;5.30809100;2022-07-23T01:45:14;11.97;;;10.83;;
3331;SDS011;1678;50.94845400;5.30809100;2022-07-23T01:47:42;10.73;;;9.63;;
3331;SDS011;1678;50.94845400;5.30809100;2022-07-23T01:50:10;15.10;;;10.73;;
3331;SDS011;1678;50.94845400;5.30809100;2022-07-23T01:52:38;11.90;;;9.43;;
3331;SDS011;1678;50.94845400;5.30809100;2022-07-23T01:55:06;10.97;;;9.87;;
3331;SDS011;1678;50.94845400;5.30809100;2022-07-23T01:57:45;11.53;;;10.43;;
3331;SDS011;1678;50.94845400;5.30809100;2022-07-23T02:00:13;12.10;;;10.30;;
3331;SDS011;1678;50.94845400;5.30809100;2022-07-23T02:02:41;12.13;;;10.10;;
3331;SDS011;1678;50.94845400;5.30809100;2022-07-23T02:05:09;11.23;;;10.03;;
3331;SDS011;1678;50.94845400;5.30809100;2022-07-23T02:07:37;14.83;;;11.43;;
3331;SDS011;1678;50.94845400;5.30809100;2022-07-23T02:10:06;15.07;;;10.97;;
3331;SDS011;1678;50.94845400;5.30809100;2022-07-23T02:12:35;17.10;;;11.83;;
3331;SDS011;1678;50.94845400;5.30809100;2022-07-23T02:15:05;13.13;;;11.80;;
3331;SDS011;1678;50.94845400;5.30809100;2022-07-23T02:17:35;12.97;;;10.70;;
3331;SDS011;1678;50.94845400;5.30809100;2022-07-23T02:20:04;11.40;;;10.30;;
3331;SDS011;1678;50.94845400;5.30809100;2022-07-23T02:22:33;16.83;;;11.90;;
3331;SDS011;1678;50.94845400;5.30809100;2022-07-23T02:25:02;13.63;;;9.60;;
3331;SDS011;1678;50.94845400;5.30809100;2022-07-23T02:27:30;17.00;;;11.53;;
3331;SDS011;1678;50.94845400;5.30809100;2022-07-23T02:29:58;18.97;;;9.90;;
3331;SDS011;1678;50.94845400;5.30809100;2022-07-23T02:32:28;17.77;;;10.53;;
3331;SDS011;1678;50.94845400;5.30809100;2022-07-23T02:34:56;13.63;;;11.13;;
3331;SDS011;1678;50.94845400;5.30809100;2022-07-23T02:37:24;16.00;;;12.00;;
3331;SDS011;1678;50.94845400;5.30809100;2022-07-23T02:39:52;13.90;;;11.87;;
3331;SDS011;1678;50.94845400;5.30809100;2022-07-23T02:42:21;16.60;;;12.20;;
3331;SDS011;1678;50.94845400;5.30809100;2022-07-23T02:44:50;19.73;;;12.53;;
3331;SDS011;1678;50.94845400;5.30809100;2022-07-23T02:47:18;11.60;;;10.47;;
3331;SDS011;1678;50.94845400;5.30809100;2022-07-23T02:49:47;16.40;;;11.13;;
3331;SDS011;1678;50.94845400;5.30809100;2022-07-23T02:52:15;12.70;;;11.03;;
3331;SDS011;1678;50.94845400;5.30809100;2022-07-23T02:54:43;22.83;;;11.00;;
3331;SDS011;1678;50.94845400;5.30809100;2022-07-23T02:57:11;13.00;;;10.57;;
3331;SDS011;1678;50.94845400;5.30809100;2022-07-23T02:59:39;13.20;;;10.60;;
3331;SDS011;1678;50.94845400;5.30809100;2022-07-23T03:02:07;20.23;;;11.47;;
3331;SDS011;1678;50.94845400;5.30809100;2022-07-23T03:04:35;15.60;;;11.27;;
3331;SDS011;1678;50.94845400;5.30809100;2022-07-23T03:07:05;20.03;;;12.37;;
3331;SDS011;1678;50.94845400;5.30809100;2022-07-23T03:09:33;18.40;;;10.93;;
3331;SDS011;1678;50.94845400;5.30809100;2022-07-23T03:12:01;18.13;;;10.37;;
3331;SDS011;1678;50.94845400;5.30809100;2022-07-23T03:14:29;17.30;;;11.73;;
3331;SDS011;1678;50.94845400;5.30809100;2022-07-23T03:16:57;15.20;;;8.97;;
3331;SDS011;1678;50.94845400;5.30809100;2022-07-23T03:19:26;22.80;;;12.33;;
3331;SDS011;1678;50.94845400;5.30809100;2022-07-23T03:21:54;13.00;;;11.63;;
3331;SDS011;1678;50.94845400;5.30809100;2022-07-23T03:24:23;18.27;;;11.10;;
3331;SDS011;1678;50.94845400;5.30809100;2022-07-23T03:27:12;16.30;;;12.60;;
3331;SDS011;1678;50.94845400;5.30809100;2022-07-23T03:29:40;12.37;;;10.47;;
3331;SDS011;1678;50.94845400;5.30809100;2022-07-23T03:32:08;25.43;;;13.20;;
3331;SDS011;1678;50.94845400;5.30809100;2022-07-23T03:34:36;14.90;;;12.17;;
3331;SDS011;1678;50.94845400;5.30809100;2022-07-23T03:37:05;14.50;;;11.17;;
3331;SDS011;1678;50.94845400;5.30809100;2022-07-23T03:39:34;14.37;;;11.40;;
3331;SDS011;1678;50.94845400;5.30809100;2022-07-23T03:42:03;15.70;;;12.90;;
3331;SDS011;1678;50.94845400;5.30809100;2022-07-23T03:44:32;16.13;;;11.80;;
3331;SDS011;1678;50.94845400;5.30809100;2022-07-23T03:47:03;18.53;;;13.23;;
3331;SDS011;1678;50.94845400;5.30809100;2022-07-23T03:49:31;16.57;;;13.00;;
3331;SDS011;1678;50.94845400;5.30809100;2022-07-23T03:52:00;16.93;;;11.53;;
3331;SDS011;1678;50.94845400;5.30809100;2022-07-23T03:54:28;17.57;;;12.90;;
3331;SDS011;1678;50.94845400;5.30809100;2022-07-23T03:56:57;22.53;;;15.10;;
3331;SDS011;1678;50.94845400;5.30809100;2022-07-23T03:59:26;15.87;;;13.30;;
3331;SDS011;1678;50.94845400;5.30809100;2022-07-23T04:01:54;21.50;;;13.67;;
3331;SDS011;1678;50.94845400;5.30809100;2022-07-23T04:04:22;18.80;;;13.20;;
3331;SDS011;1678;50.94845400;5.30809100;2022-07-23T04:06:50;16.07;;;12.37;;
3331;SDS011;1678;50.94845400;5.30809100;2022-07-23T04:09:18;14.30;;;11.40;;
3331;SDS011;1678;50.94845400;5.30809100;2022-07-23T04:11:46;19.40;;;12.57;;
3331;SDS011;1678;50.94845400;5.30809100;2022-07-23T04:14:15;14.27;;;11.70;;
3331;SDS011;1678;50.94845400;5.30809100;2022-07-23T04:16:43;17.67;;;13.63;;
3331;SDS011;1678;50.94845400;5.30809100;2022-07-23T04:19:11;18.90;;;12.90;;
3331;SDS011;1678;50.94845400;5.30809100;2022-07-23T04:21:39;12.50;;;11.30;;
3331;SDS011;1678;50.94845400;5.30809100;2022-07-23T04:24:08;17.20;;;12.40;;
3331;SDS011;1678;50.94845400;5.30809100;2022-07-23T04:26:36;18.03;;;11.27;;
3331;SDS011;1678;50.94845400;5.30809100;2022-07-23T04:29:04;24.20;;;12.30;;
3331;SDS011;1678;50.94845400;5.30809100;2022-07-23T04:31:33;17.53;;;11.83;;
3331;SDS011;1678;50.94845400;5.30809100;2022-07-23T04:34:03;15.00;;;11.27;;
3331;SDS011;1678;50.94845400;5.30809100;2022-07-23T04:36:31;16.20;;;12.87;;
3331;SDS011;1678;50.94845400;5.30809100;2022-07-23T04:38:59;14.20;;;11.83;;
3331;SDS011;1678;50.94845400;5.30809100;2022-07-23T04:41:27;12.50;;;11.07;;
3331;SDS011;1678;50.94845400;5.30809100;2022-07-23T04:43:55;20.27;;;11.87;;
3331;SDS011;1678;50.94845400;5.30809100;2022-07-23T04:46:24;16.20;;;14.40;;
3331;SDS011;1678;50.94845400;5.30809100;2022-07-23T04:48:53;13.27;;;11.47;;
3331;SDS011;1678;50.94845400;5.30809100;2022-07-23T04:51:22;19.77;;;13.30;;
3331;SDS011;1678;50.94845400;5.30809100;2022-07-23T04:53:53;19.30;;;12.30;;
3331;SDS011;1678;50.94845400;5.30809100;2022-07-23T04:56:21;23.10;;;16.13;;
3331;SDS011;1678;50.94845400;5.30809100;2022-07-23T04:58:49;24.70;;;14.83;;
3331;SDS011;1678;50.94845400;5.30809100;2022-07-23T05:01:17;18.90;;;14.33;;
3331;SDS011;1678;50.94845400;5.30809100;2022-07-23T05:03:45;21.63;;;14.40;;
3331;SDS011;1678;50.94845400;5.30809100;2022-07-23T05:06:16;24.47;;;15.53;;
3331;SDS011;1678;50.94845400;5.30809100;2022-07-23T05:08:44;21.93;;;16.40;;
3331;SDS011;1678;50.94845400;5.30809100;2022-07-23T05:11:12;16.57;;;14.50;;
3331;SDS011;1678;50.94845400;5.30809100;2022-07-23T05:13:40;26.73;;;17.20;;
3331;SDS011;1678;50.94845400;5.30809100;2022-07-23T05:16:08;17.10;;;13.93;;
3331;SDS011;1678;50.94845400;5.30809100;2022-07-23T05:18:36;22.33;;;15.10;;
3331;SDS011;1678;50.94845400;5.30809100;2022-07-23T05:21:04;18.87;;;14.53;;
3331;SDS011;1678;50.94845400;5.30809100;2022-07-23T05:23:34;20.00;;;15.00;;
3331;SDS011;1678;50.94845400;5.30809100;2022-07-23T05:26:02;18.33;;;16.27;;
3331;SDS011;1678;50.94845400;5.30809100;2022-07-23T05:28:30;16.93;;;14.53;;
3331;SDS011;1678;50.94845400;5.30809100;2022-07-23T05:30:58;19.73;;;15.67;;
3331;SDS011;1678;50.94845400;5.30809100;2022-07-23T05:33:26;22.83;;;14.00;;
3331;SDS011;1678;50.94845400;5.30809100;2022-07-23T05:35:59;18.30;;;13.53;;
3331;SDS011;1678;50.94845400;5.30809100;2022-07-23T05:38:27;15.73;;;14.13;;
3331;SDS011;1678;50.94845400;5.30809100;2022-07-23T05:40:57;20.10;;;13.80;;
3331;SDS011;1678;50.94845400;5.30809100;2022-07-23T05:43:25;19.93;;;15.30;;
3331;SDS011;1678;50.94845400;5.30809100;2022-07-23T05:45:54;15.93;;;14.23;;
3331;SDS011;1678;50.94845400;5.30809100;2022-07-23T05:48:22;15.93;;;14.43;;
3331;SDS011;1678;50.94845400;5.30809100;2022-07-23T05:50:50;17.83;;;16.03;;
3331;SDS011;1678;50.94845400;5.30809100;2022-07-23T05:53:19;18.97;;;14.43;;
3331;SDS011;1678;50.94845400;5.30809100;2022-07-23T05:55:47;23.93;;;15.10;;
3331;SDS011;1678;50.94845400;5.30809100;2022-07-23T05:58:16;14.63;;;13.13;;
3331;SDS011;1678;50.94845400;5.30809100;2022-07-23T06:00:44;15.97;;;12.90;;
3331;SDS011;1678;50.94845400;5.30809100;2022-07-23T06:03:12;17.90;;;13.40;;
3331;SDS011;1678;50.94845400;5.30809100;2022-07-23T06:05:40;15.00;;;13.83;;
3331;SDS011;1678;50.94845400;5.30809100;2022-07-23T06:08:08;15.53;;;12.80;;
3331;SDS011;1678;50.94845400;5.30809100;2022-07-23T06:10:37;15.97;;;14.40;;
3331;SDS011;1678;50.94845400;5.30809100;2022-07-23T06:13:05;14.73;;;13.23;;
3331;SDS011;1678;50.94845400;5.30809100;2022-07-23T06:15:35;13.90;;;12.70;;
3331;SDS011;1678;50.94845400;5.30809100;2022-07-23T06:18:03;16.10;;;11.90;;
3331;SDS011;1678;50.94845400;5.30809100;2022-07-23T06:20:31;13.53;;;12.23;;
3331;SDS011;1678;50.94845400;5.30809100;2022-07-23T06:22:59;13.90;;;10.70;;
3331;SDS011;1678;50.94845400;5.30809100;2022-07-23T06:25:27;11.63;;;10.63;;
3331;SDS011;1678;50.94845400;5.30809100;2022-07-23T06:27:55;13.00;;;11.70;;
3331;SDS011;1678;50.94845400;5.30809100;2022-07-23T06:30:24;12.17;;;11.07;;
3331;SDS011;1678;50.94845400;5.30809100;2022-07-23T06:32:54;13.23;;;11.97;;
3331;SDS011;1678;50.94845400;5.30809100;2022-07-23T06:35:22;12.60;;;11.47;;
3331;SDS011;1678;50.94845400;5.30809100;2022-07-23T06:37:50;12.47;;;11.47;;
3331;SDS011;1678;50.94845400;5.30809100;2022-07-23T06:40:19;13.03;;;11.87;;
3331;SDS011;1678;50.94845400;5.30809100;2022-07-23T06:42:47;14.80;;;10.30;;
3331;SDS011;1678;50.94845400;5.30809100;2022-07-23T06:45:15;15.33;;;12.70;;
3331;SDS011;1678;50.94845400;5.30809100;2022-07-23T06:47:43;10.70;;;9.43;;
3331;SDS011;1678;50.94845400;5.30809100;2022-07-23T06:50:12;13.53;;;10.93;;
3331;SDS011;1678;50.94845400;5.30809100;2022-07-23T06:52:40;15.43;;;11.87;;
3331;SDS011;1678;50.94845400;5.30809100;2022-07-23T06:55:09;11.60;;;10.07;;
3331;SDS011;1678;50.94845400;5.30809100;2022-07-23T06:57:37;12.30;;;11.17;;
3331;SDS011;1678;50.94845400;5.30809100;2022-07-23T07:00:06;11.30;;;10.30;;
3331;SDS011;1678;50.94845400;5.30809100;2022-07-23T07:02:35;12.30;;;11.30;;
3331;SDS011;1678;50.94845400;5.30809100;2022-07-23T07:05:03;13.07;;;11.80;;
3331;SDS011;1678;50.94845400;5.30809100;2022-07-23T07:07:33;16.23;;;11.67;;
3331;SDS011;1678;50.94845400;5.30809100;2022-07-23T07:10:02;12.83;;;11.37;;
3331;SDS011;1678;50.94845400;5.30809100;2022-07-23T07:12:30;11.00;;;9.80;;
3331;SDS011;1678;50.94845400;5.30809100;2022-07-23T07:14:58;11.40;;;10.40;;
3331;SDS011;1678;50.94845400;5.30809100;2022-07-23T07:17:27;15.03;;;10.63;;
3331;SDS011;1678;50.94845400;5.30809100;2022-07-23T07:19:55;12.20;;;10.20;;
3331;SDS011;1678;50.94845400;5.30809100;2022-07-23T07:22:23;14.97;;;11.63;;
3331;SDS011;1678;50.94845400;5.30809100;2022-07-23T07:24:52;11.17;;;10.07;;
3331;SDS011;1678;50.94845400;5.30809100;2022-07-23T07:27:20;13.57;;;11.77;;
3331;SDS011;1678;50.94845400;5.30809100;2022-07-23T07:29:48;12.47;;;10.20;;
3331;SDS011;1678;50.94845400;5.30809100;2022-07-23T07:32:16;13.10;;;11.90;;
3331;SDS011;1678;50.94845400;5.30809100;2022-07-23T07:35:04;11.50;;;10.43;;
3331;SDS011;1678;50.94845400;5.30809100;2022-07-23T07:37:33;11.47;;;10.37;;
3331;SDS011;1678;50.94845400;5.30809100;2022-07-23T07:40:03;12.77;;;11.67;;
3331;SDS011;1678;50.94845400;5.30809100;2022-07-23T07:42:31;10.50;;;9.60;;
3331;SDS011;1678;50.94845400;5.30809100;2022-07-23T07:45:00;11.50;;;9.70;;
3331;SDS011;1678;50.94845400;5.30809100;2022-07-23T07:47:28;12.60;;;11.50;;
3331;SDS011;1678;50.94845400;5.30809100;2022-07-23T07:49:56;11.67;;;10.57;;
3331;SDS011;1678;50.94845400;5.30809100;2022-07-23T07:52:24;11.27;;;10.00;;
3331;SDS011;1678;50.94845400;5.30809100;2022-07-23T07:54:52;9.67;;;8.77;;
3331;SDS011;1678;50.94845400;5.30809100;2022-07-23T07:57:22;9.37;;;8.57;;
3331;SDS011;1678;50.94845400;5.30809100;2022-07-23T07:59:51;10.20;;;8.70;;
3331;SDS011;1678;50.94845400;5.30809100;2022-07-23T08:02:22;9.93;;;8.93;;
3331;SDS011;1678;50.94845400;5.30809100;2022-07-23T08:04:50;9.03;;;8.20;;
3331;SDS011;1678;50.94845400;5.30809100;2022-07-23T08:07:18;6.67;;;6.17;;
3331;SDS011;1678;50.94845400;5.30809100;2022-07-23T08:09:47;7.67;;;7.17;;
3331;SDS011;1678;50.94845400;5.30809100;2022-07-23T08:12:15;8.97;;;8.13;;
3331;SDS011;1678;50.94845400;5.30809100;2022-07-23T08:14:44;7.43;;;6.83;;
3331;SDS011;1678;50.94845400;5.30809100;2022-07-23T08:17:12;10.97;;;8.07;;
3331;SDS011;1678;50.94845400;5.30809100;2022-07-23T08:19:41;7.80;;;7.10;;
3331;SDS011;1678;50.94845400;5.30809100;2022-07-23T08:22:09;9.47;;;8.53;;
3331;SDS011;1678;50.94845400;5.30809100;2022-07-23T08:24:37;10.00;;;9.00;;
3331;SDS011;1678;50.94845400;5.30809100;2022-07-23T08:27:05;7.23;;;6.50;;
3331;SDS011;1678;50.94845400;5.30809100;2022-07-23T08:29:33;9.30;;;8.50;;
3331;SDS011;1678;50.94845400;5.30809100;2022-07-23T08:32:03;11.17;;;9.20;;
3331;SDS011;1678;50.94845400;5.30809100;2022-07-23T08:34:51;8.53;;;7.70;;
3331;SDS011;1678;50.94845400;5.30809100;2022-07-23T08:37:19;8.03;;;7.23;;
3331;SDS011;1678;50.94845400;5.30809100;2022-07-23T08:39:47;10.00;;;8.97;;
3331;SDS011;1678;50.94845400;5.30809100;2022-07-23T08:42:15;12.17;;;7.93;;
3331;SDS011;1678;50.94845400;5.30809100;2022-07-23T08:44:44;8.10;;;7.40;;
3331;SDS011;1678;50.94845400;5.30809100;2022-07-23T08:47:14;9.17;;;8.37;;
3331;SDS011;1678;50.94845400;5.30809100;2022-07-23T08:49:43;9.67;;;8.20;;
3331;SDS011;1678;50.94845400;5.30809100;2022-07-23T08:52:13;8.90;;;8.00;;
3331;SDS011;1678;50.94845400;5.30809100;2022-07-23T08:54:41;8.50;;;7.80;;
3331;SDS011;1678;50.94845400;5.30809100;2022-07-23T08:57:11;12.00;;;9.23;;
3331;SDS011;1678;50.94845400;5.30809100;2022-07-23T08:59:39;8.37;;;7.20;;
3331;SDS011;1678;50.94845400;5.30809100;2022-07-23T09:02:07;9.33;;;8.00;;
3331;SDS011;1678;50.94845400;5.30809100;2022-07-23T09:04:37;8.83;;;7.93;;
3331;SDS011;1678;50.94845400;5.30809100;2022-07-23T09:07:06;8.77;;;7.20;;
3331;SDS011;1678;50.94845400;5.30809100;2022-07-23T09:09:34;8.73;;;6.50;;
3331;SDS011;1678;50.94845400;5.30809100;2022-07-23T09:12:02;8.60;;;7.70;;
3331;SDS011;1678;50.94845400;5.30809100;2022-07-23T09:14:38;6.80;;;6.33;;
3331;SDS011;1678;50.94845400;5.30809100;2022-07-23T09:17:08;7.87;;;7.37;;
3331;SDS011;1678;50.94845400;5.30809100;2022-07-23T09:19:41;7.00;;;6.60;;
3331;SDS011;1678;50.94845400;5.30809100;2022-07-23T09:22:16;8.73;;;8.03;;
3331;SDS011;1678;50.94845400;5.30809100;2022-07-23T09:25:07;9.73;;;6.90;;
3331;SDS011;1678;50.94845400;5.30809100;2022-07-23T09:27:50;8.67;;;7.93;;
3331;SDS011;1678;50.94845400;5.30809100;2022-07-23T09:30:21;8.10;;;7.40;;
3331;SDS011;1678;50.94845400;5.30809100;2022-07-23T09:33:06;10.97;;;9.60;;
3331;SDS011;1678;50.94845400;5.30809100;2022-07-23T09:35:48;6.67;;;6.07;;
3331;SDS011;1678;50.94845400;5.30809100;2022-07-23T09:38:18;6.53;;;6.13;;
3331;SDS011;1678;50.94845400;5.30809100;2022-07-23T09:40:47;6.50;;;5.90;;
3331;SDS011;1678;50.94845400;5.30809100;2022-07-23T09:43:33;9.67;;;6.43;;
3331;SDS011;1678;50.94845400;5.30809100;2022-07-23T09:46:17;5.57;;;5.27;;
3331;SDS011;1678;50.94845400;5.30809100;2022-07-23T09:48:47;6.00;;;5.50;;
3331;SDS011;1678;50.94845400;5.30809100;2022-07-23T09:51:17;6.17;;;5.60;;
3331;SDS011;1678;50.94845400;5.30809100;2022-07-23T09:53:48;6.50;;;6.03;;
3331;SDS011;1678;50.94845400;5.30809100;2022-07-23T09:56:16;11.23;;;5.90;;
3331;SDS011;1678;50.94845400;5.30809100;2022-07-23T09:58:52;9.73;;;6.17;;
3331;SDS011;1678;50.94845400;5.30809100;2022-07-23T10:01:29;11.80;;;5.07;;
3331;SDS011;1678;50.94845400;5.30809100;2022-07-23T10:03:59;8.03;;;5.53;;
3331;SDS011;1678;50.94845400;5.30809100;2022-07-23T10:06:30;5.50;;;5.10;;
3331;SDS011;1678;50.94845400;5.30809100;2022-07-23T10:08:58;8.17;;;4.40;;
3331;SDS011;1678;50.94845400;5.30809100;2022-07-23T10:11:28;4.93;;;4.63;;
3331;SDS011;1678;50.94845400;5.30809100;2022-07-23T10:13:58;6.00;;;5.50;;
3331;SDS011;1678;50.94845400;5.30809100;2022-07-23T10:16:29;5.33;;;4.83;;
3331;SDS011;1678;50.94845400;5.30809100;2022-07-23T10:18:58;5.40;;;4.80;;
3331;SDS011;1678;50.94845400;5.30809100;2022-07-23T10:21:27;8.00;;;4.27;;
3331;SDS011;1678;50.94845400;5.30809100;2022-07-23T10:24:10;4.33;;;4.03;;
3331;SDS011;1678;50.94845400;5.30809100;2022-07-23T10:26:50;4.03;;;3.37;;
3331;SDS011;1678;50.94845400;5.30809100;2022-07-23T10:29:30;4.07;;;3.77;;
3331;SDS011;1678;50.94845400;5.30809100;2022-07-23T10:32:14;4.50;;;3.10;;
3331;SDS011;1678;50.94845400;5.30809100;2022-07-23T10:34:52;3.70;;;2.53;;
3331;SDS011;1678;50.94845400;5.30809100;2022-07-23T10:37:31;3.80;;;3.60;;
3331;SDS011;1678;50.94845400;5.30809100;2022-07-23T10:40:13;3.50;;;3.20;;
3331;SDS011;1678;50.94845400;5.30809100;2022-07-23T10:42:43;4.73;;;3.80;;
3331;SDS011;1678;50.94845400;5.30809100;2022-07-23T10:45:21;2.80;;;2.60;;
3331;SDS011;1678;50.94845400;5.30809100;2022-07-23T10:47:52;3.37;;;3.27;;
3331;SDS011;1678;50.94845400;5.30809100;2022-07-23T10:50:21;3.13;;;2.80;;
3331;SDS011;1678;50.94845400;5.30809100;2022-07-23T10:55:54;3.17;;;2.60;;
3331;SDS011;1678;50.94845400;5.30809100;2022-07-23T10:58:23;2.43;;;2.33;;
3331;SDS011;1678;50.94845400;5.30809100;2022-07-23T11:01:33;2.20;;;1.80;;
3331;SDS011;1678;50.94845400;5.30809100;2022-07-23T11:04:03;1.83;;;1.83;;
3331;SDS011;1678;50.94845400;5.30809100;2022-07-23T11:09:39;1.43;;;1.43;;
3331;SDS011;1678;50.94845400;5.30809100;2022-07-23T11:15:05;1.50;;;1.50;;
3331;SDS011;1678;50.94845400;5.30809100;2022-07-23T11:17:36;2.57;;;1.23;;
3331;SDS011;1678;50.94845400;5.30809100;2022-07-23T11:20:12;1.40;;;1.40;;
3331;SDS011;1678;50.94845400;5.30809100;2022-07-23T11:22:48;1.70;;;1.53;;
3331;SDS011;1678;50.94845400;5.30809100;2022-07-23T11:25:31;1.87;;;1.77;;
3331;SDS011;1678;50.94845400;5.30809100;2022-07-23T11:28:08;1.80;;;1.80;;
3331;SDS011;1678;50.94845400;5.30809100;2022-07-23T11:30:38;1.10;;;1.10;;
3331;SDS011;1678;50.94845400;5.30809100;2022-07-23T11:33:20;1.07;;;1.07;;
3331;SDS011;1678;50.94845400;5.30809100;2022-07-23T11:35:49;2.50;;;1.60;;
3331;SDS011;1678;50.94845400;5.30809100;2022-07-23T11:38:30;1.37;;;1.37;;
3331;SDS011;1678;50.94845400;5.30809100;2022-07-23T11:41:01;1.17;;;1.17;;
3331;SDS011;1678;50.94845400;5.30809100;2022-07-23T11:43:29;1.00;;;1.00;;
3331;SDS011;1678;50.94845400;5.30809100;2022-07-23T11:45:57;1.00;;;1.00;;
3331;SDS011;1678;50.94845400;5.30809100;2022-07-23T11:48:27;1.43;;;1.07;;
3331;SDS011;1678;50.94845400;5.30809100;2022-07-23T11:51:01;1.50;;;1.50;;
3331;SDS011;1678;50.94845400;5.30809100;2022-07-23T11:53:32;1.10;;;1.10;;
3331;SDS011;1678;50.94845400;5.30809100;2022-07-23T11:56:06;1.33;;;1.23;;
3331;SDS011;1678;50.94845400;5.30809100;2022-07-23T11:58:36;0.93;;;0.90;;
3331;SDS011;1678;50.94845400;5.30809100;2022-07-23T12:01:05;0.87;;;0.87;;
3331;SDS011;1678;50.94845400;5.30809100;2022-07-23T12:03:48;0.80;;;0.80;;
3331;SDS011;1678;50.94845400;5.30809100;2022-07-23T12:06:17;3.07;;;1.20;;
3331;SDS011;1678;50.94845400;5.30809100;2022-07-23T12:08:45;4.33;;;0.90;;
3331;SDS011;1678;50.94845400;5.30809100;2022-07-23T12:11:15;1.37;;;1.27;;
3331;SDS011;1678;50.94845400;5.30809100;2022-07-23T12:13:43;1.60;;;1.60;;
3331;SDS011;1678;50.94845400;5.30809100;2022-07-23T12:16:11;1.13;;;1.13;;
3331;SDS011;1678;50.94845400;5.30809100;2022-07-23T12:18:39;1.50;;;1.47;;
3331;SDS011;1678;50.94845400;5.30809100;2022-07-23T12:21:07;3.47;;;1.70;;
3331;SDS011;1678;50.94845400;5.30809100;2022-07-23T12:23:35;0.80;;;0.80;;
3331;SDS011;1678;50.94845400;5.30809100;2022-07-23T12:26:04;1.23;;;1.23;;
3331;SDS011;1678;50.94845400;5.30809100;2022-07-23T12:28:34;1.03;;;1.00;;
3331;SDS011;1678;50.94845400;5.30809100;2022-07-23T12:31:04;1.57;;;1.47;;
3331;SDS011;1678;50.94845400;5.30809100;2022-07-23T12:33:33;1.27;;;1.27;;
3331;SDS011;1678;50.94845400;5.30809100;2022-07-23T12:36:03;1.70;;;1.60;;
3331;SDS011;1678;50.94845400;5.30809100;2022-07-23T12:38:36;1.30;;;1.30;;
3331;SDS011;1678;50.94845400;5.30809100;2022-07-23T12:41:06;1.00;;;1.00;;
3331;SDS011;1678;50.94845400;5.30809100;2022-07-23T12:43:37;0.80;;;0.80;;
3331;SDS011;1678;50.94845400;5.30809100;2022-07-23T12:46:06;1.13;;;1.13;;
3331;SDS011;1678;50.94845400;5.30809100;2022-07-23T12:48:37;2.17;;;2.07;;
3331;SDS011;1678;50.94845400;5.30809100;2022-07-23T12:51:07;1.40;;;1.30;;
3331;SDS011;1678;50.94845400;5.30809100;2022-07-23T12:53:47;1.40;;;1.30;;
3331;SDS011;1678;50.94845400;5.30809100;2022-07-23T12:56:17;1.83;;;1.83;;
3331;SDS011;1678;50.94845400;5.30809100;2022-07-23T12:58:48;1.97;;;1.80;;
3331;SDS011;1678;50.94845400;5.30809100;2022-07-23T13:01:22;2.13;;;1.93;;
3331;SDS011;1678;50.94845400;5.30809100;2022-07-23T13:04:00;7.37;;;2.40;;
3331;SDS011;1678;50.94845400;5.30809100;2022-07-23T13:06:38;2.37;;;1.90;;
3331;SDS011;1678;50.94845400;5.30809100;2022-07-23T13:09:08;3.17;;;1.80;;
3331;SDS011;1678;50.94845400;5.30809100;2022-07-23T13:11:39;1.83;;;1.73;;
3331;SDS011;1678;50.94845400;5.30809100;2022-07-23T13:14:08;1.40;;;1.40;;
3331;SDS011;1678;50.94845400;5.30809100;2022-07-23T13:16:38;3.47;;;1.50;;
3331;SDS011;1678;50.94845400;5.30809100;2022-07-23T13:19:07;1.80;;;1.80;;
3331;SDS011;1678;50.94845400;5.30809100;2022-07-23T13:21:37;1.57;;;1.57;;
3331;SDS011;1678;50.94845400;5.30809100;2022-07-23T13:24:06;2.03;;;1.93;;